Four Oaks, NC (27524)

8:23 PM EDT on August 31, 2015 (GMT -0400)
Moore Farm | | Change Station
CLOSE
Current Station
Personal Weather Station
Location: Four Oaks, NC
Elevation: 141 ft
Nearby Weather Stations

Elev 141 ft 35.41 °N, 78.39 °W | Updated 3 minutes ago

Mostly Cloudy
Mostly Cloudy
75.2 °F
Feels Like 74 °F
N
0.0
Wind Variable Wind from ENE
Gusts 0.0 mph

Today
High -- | Low -- °F
--% Chance of Precip.
Yesterday
High -- | Low -- °F
Precip. -- in
6:45 AM 7:42 PM
Waning Gibbous, 93% visible
Pressure 30.06 in
Visibility 10.0 miles
Clouds Mostly Cloudy 1500 ft
Mostly Cloudy 2200 ft
Overcast 2700 ft
Heat Index 74 °F
Dew Point 73 °F
Humidity 92%
Rainfall in
Snow Depth Not available.
UV 0 out of 12
Pollen 7.40 out of 12
Air Quality Not available.
Flu Activity Not available.
METAR KJNX 010015Z AUTO 00000KT 10SM BKN015 BKN022 OVC027 25/23 A3006 RMK AO2
Pressure 30.06 in
Visibility 10.0 miles
Clouds Mostly Cloudy 1500 ft
Mostly Cloudy 2200 ft
Overcast 2700 ft
Heat Index 74 °F
Dew Point 73 °F
Humidity 92%
Rainfall in
Snow Depth Not available.
UV 0 out of 12
Pollen 7.40 out of 12
Air Quality Not available.
Flu Activity Not available.
METAR KJNX 010015Z AUTO 00000KT 10SM BKN015 BKN022 OVC027 25/23 A3006 RMK AO2

10-Day Weather Forecast

×

Almanac

Astronomy

Aug. 31, 2015 Rise Set
Actual Time
Civil Twilight
Nautical Twilight
Astronomical Twilight
Moon
Length of Visible Light
Length of Day
Tomorrow will be .
, % of the Moon is Illuminated

Today's Extremes

State Highs State Lows

Community

WunderPhotos

Upload Photos

1,851,405 photos uploaded!

WunderBlogs® & News

Nearby

Air Quality

  Air Quality AQ Index Pollutant
Not available.

Snow Depth

Station Depth Elevation

Earthquake Activity

City Distance Mag. Time & Date
Minimum magnitude displayed is 2.5.

Coastal Water Temperatures

Place Temperature

Stations

Nearby Weather Stations

Station Location Temp. Windchill Dew Point Humidity Wind Precip. Elev Updated Type